sensor_id;sensor_type;location;lat;lon;timestamp;P1;durP1;ratioP1;P2;durP2;ratioP2
44197;SDS011;30157;55.512;37.764;2023-08-06T00:00:57;8.15;;;5.03;;
44197;SDS011;30157;55.512;37.764;2023-08-06T00:03:23;6.53;;;4.60;;
44197;SDS011;30157;55.512;37.764;2023-08-06T00:05:48;7.57;;;5.22;;
44197;SDS011;30157;55.512;37.764;2023-08-06T00:08:14;5.78;;;4.47;;
44197;SDS011;30157;55.512;37.764;2023-08-06T00:10:40;7.97;;;5.20;;
44197;SDS011;30157;55.512;37.764;2023-08-06T00:13:07;8.35;;;5.20;;
44197;SDS011;30157;55.512;37.764;2023-08-06T00:15:32;8.93;;;6.32;;
44197;SDS011;30157;55.512;37.764;2023-08-06T00:17:58;6.55;;;5.15;;
44197;SDS011;30157;55.512;37.764;2023-08-06T00:20:24;7.07;;;5.22;;
44197;SDS011;30157;55.512;37.764;2023-08-06T00:22:50;7.35;;;5.32;;
44197;SDS011;30157;55.512;37.764;2023-08-06T00:25:15;6.22;;;4.78;;
44197;SDS011;30157;55.512;37.764;2023-08-06T00:27:42;8.30;;;5.10;;
44197;SDS011;30157;55.512;37.764;2023-08-06T00:30:08;8.45;;;4.90;;
44197;SDS011;30157;55.512;37.764;2023-08-06T00:32:35;6.93;;;4.72;;
44197;SDS011;30157;55.512;37.764;2023-08-06T00:35:00;7.40;;;5.53;;
44197;SDS011;30157;55.512;37.764;2023-08-06T00:37:27;8.27;;;5.30;;
44197;SDS011;30157;55.512;37.764;2023-08-06T00:39:52;7.35;;;6.53;;
44197;SDS011;30157;55.512;37.764;2023-08-06T00:42:18;7.55;;;5.93;;
44197;SDS011;30157;55.512;37.764;2023-08-06T00:44:46;6.15;;;5.18;;
44197;SDS011;30157;55.512;37.764;2023-08-06T00:47:12;9.45;;;6.28;;
44197;SDS011;30157;55.512;37.764;2023-08-06T00:49:38;6.43;;;5.35;;
44197;SDS011;30157;55.512;37.764;2023-08-06T00:52:05;8.48;;;5.80;;
44197;SDS011;30157;55.512;37.764;2023-08-06T00:54:32;9.50;;;6.88;;
44197;SDS011;30157;55.512;37.764;2023-08-06T00:57:00;9.63;;;7.28;;
44197;SDS011;30157;55.512;37.764;2023-08-06T00:59:26;12.27;;;7.53;;
44197;SDS011;30157;55.512;37.764;2023-08-06T01:01:53;11.75;;;5.95;;
44197;SDS011;30157;55.512;37.764;2023-08-06T01:04:19;8.75;;;6.50;;
44197;SDS011;30157;55.512;37.764;2023-08-06T01:07:00;12.00;;;7.30;;
44197;SDS011;30157;55.512;37.764;2023-08-06T01:14:43;9.60;;;6.40;;
44197;SDS011;30157;55.512;37.764;2023-08-06T01:17:16;10.02;;;7.00;;
44197;SDS011;30157;55.512;37.764;2023-08-06T01:19:43;10.93;;;6.82;;
44197;SDS011;30157;55.512;37.764;2023-08-06T01:22:08;9.98;;;6.93;;
44197;SDS011;30157;55.512;37.764;2023-08-06T01:24:34;9.88;;;7.15;;
44197;SDS011;30157;55.512;37.764;2023-08-06T01:27:03;12.02;;;7.28;;
44197;SDS011;30157;55.512;37.764;2023-08-06T01:29:44;10.35;;;6.90;;
44197;SDS011;30157;55.512;37.764;2023-08-06T01:32:12;9.20;;;6.97;;
44197;SDS011;30157;55.512;37.764;2023-08-06T01:34:40;9.55;;;7.10;;
44197;SDS011;30157;55.512;37.764;2023-08-06T01:37:09;10.45;;;7.90;;
44197;SDS011;30157;55.512;37.764;2023-08-06T01:39:36;12.63;;;10.15;;
44197;SDS011;30157;55.512;37.764;2023-08-06T01:42:03;9.63;;;8.55;;
44197;SDS011;30157;55.512;37.764;2023-08-06T01:44:29;8.85;;;7.07;;
44197;SDS011;30157;55.512;37.764;2023-08-06T01:46:55;8.15;;;5.72;;
44197;SDS011;30157;55.512;37.764;2023-08-06T01:49:21;7.43;;;5.85;;
44197;SDS011;30157;55.512;37.764;2023-08-06T01:51:47;7.00;;;5.72;;
44197;SDS011;30157;55.512;37.764;2023-08-06T01:54:13;7.82;;;5.28;;
44197;SDS011;30157;55.512;37.764;2023-08-06T01:56:38;6.93;;;5.97;;
44197;SDS011;30157;55.512;37.764;2023-08-06T01:59:04;7.05;;;5.25;;
44197;SDS011;30157;55.512;37.764;2023-08-06T02:01:30;8.43;;;5.05;;
44197;SDS011;30157;55.512;37.764;2023-08-06T02:03:55;6.03;;;5.07;;
44197;SDS011;30157;55.512;37.764;2023-08-06T02:06:21;10.20;;;5.97;;
44197;SDS011;30157;55.512;37.764;2023-08-06T02:08:47;7.55;;;5.10;;
44197;SDS011;30157;55.512;37.764;2023-08-06T02:11:15;6.25;;;5.13;;
44197;SDS011;30157;55.512;37.764;2023-08-06T02:13:41;8.20;;;5.75;;
44197;SDS011;30157;55.512;37.764;2023-08-06T02:16:07;6.63;;;5.03;;
44197;SDS011;30157;55.512;37.764;2023-08-06T02:18:36;6.82;;;5.07;;
44197;SDS011;30157;55.512;37.764;2023-08-06T02:21:02;6.20;;;5.03;;
44197;SDS011;30157;55.512;37.764;2023-08-06T02:23:28;6.55;;;4.93;;
44197;SDS011;30157;55.512;37.764;2023-08-06T02:26:04;7.35;;;5.22;;
44197;SDS011;30157;55.512;37.764;2023-08-06T02:28:30;7.45;;;5.25;;
44197;SDS011;30157;55.512;37.764;2023-08-06T02:30:57;6.13;;;4.85;;
44197;SDS011;30157;55.512;37.764;2023-08-06T02:33:23;7.57;;;5.40;;
44197;SDS011;30157;55.512;37.764;2023-08-06T02:35:49;7.38;;;5.35;;
44197;SDS011;30157;55.512;37.764;2023-08-06T02:38:16;7.78;;;5.43;;
44197;SDS011;30157;55.512;37.764;2023-08-06T02:40:45;6.13;;;5.43;;
44197;SDS011;30157;55.512;37.764;2023-08-06T02:43:11;6.13;;;5.10;;
44197;SDS011;30157;55.512;37.764;2023-08-06T02:45:38;8.10;;;5.60;;
44197;SDS011;30157;55.512;37.764;2023-08-06T02:48:04;8.25;;;5.00;;
44197;SDS011;30157;55.512;37.764;2023-08-06T02:50:31;7.25;;;4.95;;
44197;SDS011;30157;55.512;37.764;2023-08-06T02:53:02;5.80;;;4.85;;
44197;SDS011;30157;55.512;37.764;2023-08-06T02:55:28;9.55;;;5.82;;
44197;SDS011;30157;55.512;37.764;2023-08-06T02:57:54;7.80;;;5.30;;
44197;SDS011;30157;55.512;37.764;2023-08-06T03:00:20;6.75;;;4.90;;
44197;SDS011;30157;55.512;37.764;2023-08-06T03:02:46;7.88;;;5.40;;
44197;SDS011;30157;55.512;37.764;2023-08-06T03:05:20;9.43;;;4.93;;
44197;SDS011;30157;55.512;37.764;2023-08-06T03:07:47;6.15;;;5.53;;
44197;SDS011;30157;55.512;37.764;2023-08-06T03:10:19;5.93;;;5.00;;
44197;SDS011;30157;55.512;37.764;2023-08-06T03:12:45;6.93;;;4.90;;
44197;SDS011;30157;55.512;37.764;2023-08-06T03:15:12;5.75;;;4.70;;
44197;SDS011;30157;55.512;37.764;2023-08-06T03:17:40;7.22;;;5.18;;
44197;SDS011;30157;55.512;37.764;2023-08-06T03:20:08;6.63;;;4.93;;
44197;SDS011;30157;55.512;37.764;2023-08-06T03:22:34;7.05;;;4.97;;
44197;SDS011;30157;55.512;37.764;2023-08-06T03:25:00;6.90;;;5.18;;
44197;SDS011;30157;55.512;37.764;2023-08-06T03:27:30;5.75;;;5.00;;
44197;SDS011;30157;55.512;37.764;2023-08-06T03:29:56;7.35;;;5.40;;
44197;SDS011;30157;55.512;37.764;2023-08-06T03:32:25;6.57;;;5.00;;
44197;SDS011;30157;55.512;37.764;2023-08-06T03:34:52;5.35;;;4.47;;
44197;SDS011;30157;55.512;37.764;2023-08-06T03:37:20;5.75;;;4.50;;
44197;SDS011;30157;55.512;37.764;2023-08-06T03:39:45;5.35;;;4.45;;
44197;SDS011;30157;55.512;37.764;2023-08-06T03:42:11;6.22;;;4.82;;
44197;SDS011;30157;55.512;37.764;2023-08-06T03:44:37;5.82;;;4.70;;
44197;SDS011;30157;55.512;37.764;2023-08-06T03:47:03;6.57;;;4.53;;
44197;SDS011;30157;55.512;37.764;2023-08-06T03:49:29;5.95;;;4.72;;
44197;SDS011;30157;55.512;37.764;2023-08-06T03:51:55;5.03;;;4.53;;
44197;SDS011;30157;55.512;37.764;2023-08-06T03:54:21;7.03;;;5.15;;
44197;SDS011;30157;55.512;37.764;2023-08-06T03:56:47;5.85;;;4.38;;
44197;SDS011;30157;55.512;37.764;2023-08-06T03:59:12;7.53;;;4.70;;
44197;SDS011;30157;55.512;37.764;2023-08-06T04:01:39;5.45;;;4.90;;
44197;SDS011;30157;55.512;37.764;2023-08-06T04:04:04;5.95;;;4.68;;
44197;SDS011;30157;55.512;37.764;2023-08-06T04:06:30;5.65;;;4.55;;
44197;SDS011;30157;55.512;37.764;2023-08-06T04:08:57;5.07;;;4.05;;
44197;SDS011;30157;55.512;37.764;2023-08-06T04:11:22;5.20;;;4.35;;
44197;SDS011;30157;55.512;37.764;2023-08-06T04:13:48;6.20;;;4.20;;
44197;SDS011;30157;55.512;37.764;2023-08-06T04:16:14;6.10;;;4.20;;
44197;SDS011;30157;55.512;37.764;2023-08-06T04:18:40;5.72;;;4.07;;
44197;SDS011;30157;55.512;37.764;2023-08-06T04:21:06;5.68;;;4.50;;
44197;SDS011;30157;55.512;37.764;2023-08-06T04:23:32;8.25;;;4.50;;
44197;SDS011;30157;55.512;37.764;2023-08-06T04:26:02;5.75;;;4.28;;
44197;SDS011;30157;55.512;37.764;2023-08-06T04:28:32;5.53;;;4.20;;
44197;SDS011;30157;55.512;37.764;2023-08-06T04:30:58;5.75;;;4.55;;
44197;SDS011;30157;55.512;37.764;2023-08-06T04:33:25;5.95;;;4.28;;
44197;SDS011;30157;55.512;37.764;2023-08-06T04:35:56;4.65;;;3.97;;
44197;SDS011;30157;55.512;37.764;2023-08-06T04:38:24;5.40;;;4.20;;
44197;SDS011;30157;55.512;37.764;2023-08-06T04:40:54;9.25;;;4.80;;
44197;SDS011;30157;55.512;37.764;2023-08-06T04:43:20;6.45;;;4.10;;
44197;SDS011;30157;55.512;37.764;2023-08-06T04:45:47;5.97;;;4.07;;
44197;SDS011;30157;55.512;37.764;2023-08-06T04:48:17;4.45;;;3.67;;
44197;SDS011;30157;55.512;37.764;2023-08-06T04:50:44;5.30;;;4.13;;
44197;SDS011;30157;55.512;37.764;2023-08-06T04:53:10;5.97;;;4.05;;
44197;SDS011;30157;55.512;37.764;2023-08-06T04:55:36;3.97;;;3.53;;
44197;SDS011;30157;55.512;37.764;2023-08-06T04:58:02;6.55;;;4.00;;
44197;SDS011;30157;55.512;37.764;2023-08-06T05:00:27;5.47;;;3.85;;
44197;SDS011;30157;55.512;37.764;2023-08-06T05:02:53;6.70;;;3.83;;
44197;SDS011;30157;55.512;37.764;2023-08-06T05:05:19;7.15;;;4.75;;
44197;SDS011;30157;55.512;37.764;2023-08-06T05:07:45;4.57;;;3.75;;
44197;SDS011;30157;55.512;37.764;2023-08-06T05:10:14;4.43;;;3.55;;
44197;SDS011;30157;55.512;37.764;2023-08-06T05:12:39;5.65;;;3.55;;
44197;SDS011;30157;55.512;37.764;2023-08-06T05:15:05;4.80;;;3.65;;
44197;SDS011;30157;55.512;37.764;2023-08-06T05:17:31;4.57;;;3.60;;
44197;SDS011;30157;55.512;37.764;2023-08-06T05:19:57;5.25;;;3.95;;
44197;SDS011;30157;55.512;37.764;2023-08-06T05:22:23;6.50;;;4.10;;
44197;SDS011;30157;55.512;37.764;2023-08-06T05:24:49;5.35;;;4.10;;
44197;SDS011;30157;55.512;37.764;2023-08-06T05:27:14;4.53;;;3.70;;
44197;SDS011;30157;55.512;37.764;2023-08-06T05:29:40;4.18;;;3.30;;
44197;SDS011;30157;55.512;37.764;2023-08-06T05:32:06;6.20;;;3.92;;
44197;SDS011;30157;55.512;37.764;2023-08-06T05:34:32;4.68;;;3.83;;
44197;SDS011;30157;55.512;37.764;2023-08-06T05:36:57;5.68;;;4.28;;
44197;SDS011;30157;55.512;37.764;2023-08-06T05:39:23;4.63;;;3.88;;
44197;SDS011;30157;55.512;37.764;2023-08-06T05:41:49;4.40;;;3.42;;
44197;SDS011;30157;55.512;37.764;2023-08-06T05:44:15;6.00;;;3.90;;
44197;SDS011;30157;55.512;37.764;2023-08-06T05:46:41;4.70;;;3.90;;
44197;SDS011;30157;55.512;37.764;2023-08-06T05:49:07;4.68;;;3.55;;
44197;SDS011;30157;55.512;37.764;2023-08-06T05:51:33;4.10;;;3.67;;
44197;SDS011;30157;55.512;37.764;2023-08-06T05:53:59;4.10;;;3.70;;
44197;SDS011;30157;55.512;37.764;2023-08-06T05:56:25;5.05;;;3.90;;
44197;SDS011;30157;55.512;37.764;2023-08-06T05:58:51;4.43;;;3.83;;
44197;SDS011;30157;55.512;37.764;2023-08-06T06:01:18;4.88;;;3.95;;
44197;SDS011;30157;55.512;37.764;2023-08-06T06:03:45;4.50;;;3.72;;
44197;SDS011;30157;55.512;37.764;2023-08-06T06:06:11;4.63;;;3.60;;
44197;SDS011;30157;55.512;37.764;2023-08-06T06:08:38;4.55;;;3.58;;
44197;SDS011;30157;55.512;37.764;2023-08-06T06:11:04;4.05;;;3.65;;
44197;SDS011;30157;55.512;37.764;2023-08-06T06:13:29;4.38;;;3.45;;
44197;SDS011;30157;55.512;37.764;2023-08-06T06:15:55;6.28;;;4.18;;
44197;SDS011;30157;55.512;37.764;2023-08-06T06:18:22;3.50;;;3.20;;
44197;SDS011;30157;55.512;37.764;2023-08-06T06:20:48;4.35;;;3.17;;
44197;SDS011;30157;55.512;37.764;2023-08-06T06:23:14;5.55;;;4.00;;
44197;SDS011;30157;55.512;37.764;2023-08-06T06:25:43;4.28;;;3.35;;
44197;SDS011;30157;55.512;37.764;2023-08-06T06:28:12;4.22;;;3.67;;
44197;SDS011;30157;55.512;37.764;2023-08-06T06:30:37;6.15;;;3.53;;
44197;SDS011;30157;55.512;37.764;2023-08-06T06:33:03;5.25;;;3.72;;
44197;SDS011;30157;55.512;37.764;2023-08-06T06:35:29;5.43;;;4.28;;
44197;SDS011;30157;55.512;37.764;2023-08-06T06:37:55;3.78;;;3.42;;
44197;SDS011;30157;55.512;37.764;2023-08-06T06:40:21;7.75;;;3.97;;
44197;SDS011;30157;55.512;37.764;2023-08-06T06:42:47;4.55;;;3.70;;
44197;SDS011;30157;55.512;37.764;2023-08-06T06:45:14;5.05;;;3.70;;
44197;SDS011;30157;55.512;37.764;2023-08-06T06:47:40;5.75;;;3.78;;
44197;SDS011;30157;55.512;37.764;2023-08-06T06:50:05;4.10;;;3.42;;
44197;SDS011;30157;55.512;37.764;2023-08-06T06:52:32;6.20;;;4.03;;
44197;SDS011;30157;55.512;37.764;2023-08-06T06:54:58;3.40;;;3.10;;
44197;SDS011;30157;55.512;37.764;2023-08-06T06:57:24;5.43;;;3.60;;
44197;SDS011;30157;55.512;37.764;2023-08-06T06:59:50;5.93;;;3.85;;
44197;SDS011;30157;55.512;37.764;2023-08-06T07:02:15;5.63;;;3.78;;
44197;SDS011;30157;55.512;37.764;2023-08-06T07:04:41;6.65;;;3.70;;
44197;SDS011;30157;55.512;37.764;2023-08-06T07:07:07;6.57;;;3.50;;
44197;SDS011;30157;55.512;37.764;2023-08-06T07:09:33;4.07;;;3.45;;
44197;SDS011;30157;55.512;37.764;2023-08-06T07:11:58;4.32;;;3.75;;
44197;SDS011;30157;55.512;37.764;2023-08-06T07:14:25;5.57;;;3.70;;
44197;SDS011;30157;55.512;37.764;2023-08-06T07:16:51;4.20;;;3.80;;
44197;SDS011;30157;55.512;37.764;2023-08-06T07:19:17;4.40;;;3.47;;
44197;SDS011;30157;55.512;37.764;2023-08-06T07:21:43;4.32;;;3.50;;
44197;SDS011;30157;55.512;37.764;2023-08-06T07:24:09;3.80;;;3.42;;
44197;SDS011;30157;55.512;37.764;2023-08-06T07:26:34;4.95;;;3.60;;
44197;SDS011;30157;55.512;37.764;2023-08-06T07:29:00;5.60;;;3.50;;
44197;SDS011;30157;55.512;37.764;2023-08-06T07:31:26;4.55;;;3.40;;
44197;SDS011;30157;55.512;37.764;2023-08-06T07:33:52;3.97;;;3.40;;
44197;SDS011;30157;55.512;37.764;2023-08-06T07:36:18;4.55;;;3.60;;
44197;SDS011;30157;55.512;37.764;2023-08-06T07:38:44;4.55;;;3.65;;
44197;SDS011;30157;55.512;37.764;2023-08-06T07:41:10;5.20;;;3.70;;
44197;SDS011;30157;55.512;37.764;2023-08-06T07:43:35;6.55;;;4.00;;
44197;SDS011;30157;55.512;37.764;2023-08-06T07:46:01;4.78;;;3.50;;
44197;SDS011;30157;55.512;37.764;2023-08-06T07:48:28;5.43;;;3.75;;
44197;SDS011;30157;55.512;37.764;2023-08-06T07:50:54;4.90;;;3.70;;
44197;SDS011;30157;55.512;37.764;2023-08-06T07:53:24;4.47;;;3.50;;
44197;SDS011;30157;55.512;37.764;2023-08-06T07:55:52;4.93;;;3.80;;
44197;SDS011;30157;55.512;37.764;2023-08-06T07:58:19;6.13;;;3.80;;
44197;SDS011;30157;55.512;37.764;2023-08-06T08:00:46;4.30;;;3.90;;
44197;SDS011;30157;55.512;37.764;2023-08-06T08:03:13;4.00;;;3.40;;
44197;SDS011;30157;55.512;37.764;2023-08-06T08:05:40;5.65;;;3.88;;
44197;SDS011;30157;55.512;37.764;2023-08-06T08:08:08;5.95;;;3.92;;
44197;SDS011;30157;55.512;37.764;2023-08-06T08:10:40;5.00;;;3.47;;
44197;SDS011;30157;55.512;37.764;2023-08-06T08:13:06;5.55;;;3.55;;
44197;SDS011;30157;55.512;37.764;2023-08-06T08:15:32;5.72;;;3.45;;
44197;SDS011;30157;55.512;37.764;2023-08-06T08:17:58;6.07;;;3.50;;
44197;SDS011;30157;55.512;37.764;2023-08-06T08:20:24;6.13;;;4.38;;
44197;SDS011;30157;55.512;37.764;2023-08-06T08:22:57;4.85;;;3.70;;
44197;SDS011;30157;55.512;37.764;2023-08-06T08:25:24;6.90;;;3.70;;
44197;SDS011;30157;55.512;37.764;2023-08-06T08:27:50;3.60;;;3.30;;
44197;SDS011;30157;55.512;37.764;2023-08-06T08:30:16;5.75;;;3.80;;
44197;SDS011;30157;55.512;37.764;2023-08-06T08:32:42;5.20;;;3.92;;
44197;SDS011;30157;55.512;37.764;2023-08-06T08:35:07;5.55;;;3.53;;
44197;SDS011;30157;55.512;37.764;2023-08-06T08:37:33;7.38;;;3.78;;
44197;SDS011;30157;55.512;37.764;2023-08-06T08:39:59;5.45;;;3.65;;
44197;SDS011;30157;55.512;37.764;2023-08-06T08:42:26;5.05;;;4.13;;
44197;SDS011;30157;55.512;37.764;2023-08-06T08:44:59;4.50;;;4.00;;
44197;SDS011;30157;55.512;37.764;2023-08-06T08:47:30;3.70;;;3.33;;
44197;SDS011;30157;55.512;37.764;2023-08-06T08:49:59;4.43;;;3.60;;
44197;SDS011;30157;55.512;37.764;2023-08-06T08:52:28;5.50;;;3.50;;
44197;SDS011;30157;55.512;37.764;2023-08-06T08:54:57;4.68;;;3.60;;
44197;SDS011;30157;55.512;37.764;2023-08-06T08:57:25;5.90;;;3.95;;
44197;SDS011;30157;55.512;37.764;2023-08-06T08:59:51;5.80;;;3.55;;
44197;SDS011;30157;55.512;37.764;2023-08-06T09:02:17;4.70;;;3.90;;
44197;SDS011;30157;55.512;37.764;2023-08-06T09:04:46;4.00;;;3.50;;
44197;SDS011;30157;55.512;37.764;2023-08-06T09:07:13;7.32;;;3.65;;
44197;SDS011;30157;55.512;37.764;2023-08-06T09:09:43;6.03;;;3.75;;
44197;SDS011;30157;55.512;37.764;2023-08-06T09:12:14;6.60;;;3.85;;
44197;SDS011;30157;55.512;37.764;2023-08-06T09:14:41;4.20;;;3.13;;
44197;SDS011;30157;55.512;37.764;2023-08-06T09:17:07;3.50;;;3.20;;
44197;SDS011;30157;55.512;37.764;2023-08-06T09:19:36;3.58;;;3.28;;
44197;SDS011;30157;55.512;37.764;2023-08-06T09:22:02;3.72;;;3.35;;
44197;SDS011;30157;55.512;37.764;2023-08-06T09:24:28;4.53;;;3.33;;
44197;SDS011;30157;55.512;37.764;2023-08-06T09:26:54;3.78;;;3.47;;
44197;SDS011;30157;55.512;37.764;2023-08-06T09:29:20;5.38;;;4.10;;
44197;SDS011;30157;55.512;37.764;2023-08-06T09:31:46;3.53;;;3.20;;
44197;SDS011;30157;55.512;37.764;2023-08-06T09:34:18;4.00;;;3.60;;
44197;SDS011;30157;55.512;37.764;2023-08-06T09:36:46;5.32;;;4.18;;
44197;SDS011;30157;55.512;37.764;2023-08-06T09:39:14;5.68;;;3.72;;
44197;SDS011;30157;55.512;37.764;2023-08-06T09:41:47;4.28;;;3.78;;
44197;SDS011;30157;55.512;37.764;2023-08-06T09:44:20;4.47;;;3.85;;
44197;SDS011;30157;55.512;37.764;2023-08-06T09:46:49;4.25;;;3.80;;
44197;SDS011;30157;55.512;37.764;2023-08-06T09:49:27;4.20;;;3.80;;
44197;SDS011;30157;55.512;37.764;2023-08-06T09:51:54;4.07;;;3.42;;
44197;SDS011;30157;55.512;37.764;2023-08-06T09:54:26;4.20;;;3.70;;
44197;SDS011;30157;55.512;37.764;2023-08-06T09:56:53;4.63;;;3.90;;
44197;SDS011;30157;55.512;37.764;2023-08-06T09:59:21;5.78;;;4.00;;
44197;SDS011;30157;55.512;37.764;2023-08-06T10:01:48;4.53;;;3.60;;
44197;SDS011;30157;55.512;37.764;2023-08-06T10:04:15;4.57;;;3.88;;
44197;SDS011;30157;55.512;37.764;2023-08-06T10:06:46;4.88;;;3.63;;
44197;SDS011;30157;55.512;37.764;2023-08-06T10:09:15;7.82;;;3.47;;
44197;SDS011;30157;55.512;37.764;2023-08-06T10:11:42;5.40;;;3.80;;
44197;SDS011;30157;55.512;37.764;2023-08-06T10:14:14;4.57;;;3.80;;
44197;SDS011;30157;55.512;37.764;2023-08-06T10:16:45;4.65;;;3.78;;
44197;SDS011;30157;55.512;37.764;2023-08-06T10:19:12;5.35;;;4.07;;
44197;SDS011;30157;55.512;37.764;2023-08-06T10:21:40;6.07;;;4.10;;
44197;SDS011;30157;55.512;37.764;2023-08-06T10:24:07;4.05;;;3.65;;
44197;SDS011;30157;55.512;37.764;2023-08-06T10:26:36;5.45;;;3.97;;
44197;SDS011;30157;55.512;37.764;2023-08-06T10:32:02;5.90;;;4.30;;
44197;SDS011;30157;55.512;37.764;2023-08-06T10:35:01;4.50;;;3.53;;
44197;SDS011;30157;55.512;37.764;2023-08-06T10:37:36;6.80;;;4.40;;
44197;SDS011;30157;55.512;37.764;2023-08-06T10:40:06;4.45;;;4.05;;
44197;SDS011;30157;55.512;37.764;2023-08-06T10:42:33;5.03;;;4.03;;
44197;SDS011;30157;55.512;37.764;2023-08-06T10:45:14;4.75;;;3.75;;
44197;SDS011;30157;55.512;37.764;2023-08-06T10:47:41;5.13;;;3.90;;
44197;SDS011;30157;55.512;37.764;2023-08-06T10:50:10;4.88;;;4.03;;
44197;SDS011;30157;55.512;37.764;2023-08-06T10:52:37;4.72;;;4.15;;
44197;SDS011;30157;55.512;37.764;2023-08-06T10:55:03;4.32;;;3.92;;
44197;SDS011;30157;55.512;37.764;2023-08-06T10:57:30;7.25;;;4.45;;
44197;SDS011;30157;55.512;37.764;2023-08-06T10:59:55;6.47;;;4.00;;
44197;SDS011;30157;55.512;37.764;2023-08-06T11:02:21;4.53;;;3.80;;
44197;SDS011;30157;55.512;37.764;2023-08-06T11:04:47;5.20;;;3.75;;
44197;SDS011;30157;55.512;37.764;2023-08-06T11:07:13;4.90;;;4.00;;
44197;SDS011;30157;55.512;37.764;2023-08-06T11:09:39;6.38;;;3.80;;
44197;SDS011;30157;55.512;37.764;2023-08-06T11:12:11;6.30;;;4.00;;
44197;SDS011;30157;55.512;37.764;2023-08-06T11:14:37;5.88;;;4.30;;
44197;SDS011;30157;55.512;37.764;2023-08-06T11:17:04;5.93;;;4.20;;
44197;SDS011;30157;55.512;37.764;2023-08-06T11:19:31;4.45;;;4.05;;
44197;SDS011;30157;55.512;37.764;2023-08-06T11:21:57;4.22;;;3.83;;
44197;SDS011;30157;55.512;37.764;2023-08-06T11:24:24;4.57;;;3.92;;
44197;SDS011;30157;55.512;37.764;2023-08-06T11:26:49;8.23;;;4.47;;
44197;SDS011;30157;55.512;37.764;2023-08-06T11:29:15;4.95;;;4.30;;
44197;SDS011;30157;55.512;37.764;2023-08-06T11:31:41;5.47;;;3.60;;
44197;SDS011;30157;55.512;37.764;2023-08-06T11:34:07;4.95;;;4.13;;
44197;SDS011;30157;55.512;37.764;2023-08-06T11:36:34;11.85;;;9.38;;
44197;SDS011;30157;55.512;37.764;2023-08-06T11:39:05;10.95;;;7.28;;
44197;SDS011;30157;55.512;37.764;2023-08-06T11:41:32;18.98;;;8.85;;
44197;SDS011;30157;55.512;37.764;2023-08-06T11:43:58;5.20;;;4.30;;
44197;SDS011;30157;55.512;37.764;2023-08-06T11:46:24;5.00;;;4.28;;
44197;SDS011;30157;55.512;37.764;2023-08-06T11:48:54;4.72;;;4.10;;
44197;SDS011;30157;55.512;37.764;2023-08-06T11:51:27;6.00;;;4.53;;
44197;SDS011;30157;55.512;37.764;2023-08-06T11:53:56;8.30;;;4.47;;
44197;SDS011;30157;55.512;37.764;2023-08-06T11:56:26;7.72;;;4.28;;
44197;SDS011;30157;55.512;37.764;2023-08-06T11:58:54;5.60;;;4.32;;
44197;SDS011;30157;55.512;37.764;2023-08-06T12:01:20;7.25;;;3.78;;
44197;SDS011;30157;55.512;37.764;2023-08-06T12:03:45;5.00;;;4.18;;
44197;SDS011;30157;55.512;37.764;2023-08-06T12:06:11;4.78;;;4.28;;
44197;SDS011;30157;55.512;37.764;2023-08-06T12:08:37;6.03;;;4.93;;
44197;SDS011;30157;55.512;37.764;2023-08-06T12:11:03;4.82;;;4.28;;
44197;SDS011;30157;55.512;37.764;2023-08-06T12:13:29;5.85;;;4.30;;
44197;SDS011;30157;55.512;37.764;2023-08-06T12:15:55;5.35;;;4.60;;
44197;SDS011;30157;55.512;37.764;2023-08-06T12:18:22;5.57;;;3.80;;
44197;SDS011;30157;55.512;37.764;2023-08-06T12:20:49;8.10;;;4.25;;
44197;SDS011;30157;55.512;37.764;2023-08-06T12:23:15;4.35;;;3.85;;
44197;SDS011;30157;55.512;37.764;2023-08-06T12:25:41;5.57;;;4.50;;
44197;SDS011;30157;55.512;37.764;2023-08-06T12:28:07;5.05;;;4.30;;
44197;SDS011;30157;55.512;37.764;2023-08-06T12:30:34;6.20;;;4.88;;
44197;SDS011;30157;55.512;37.764;2023-08-06T12:33:00;5.43;;;4.07;;
44197;SDS011;30157;55.512;37.764;2023-08-06T12:35:26;4.95;;;4.10;;
44197;SDS011;30157;55.512;37.764;2023-08-06T12:37:52;6.65;;;4.00;;
44197;SDS011;30157;55.512;37.764;2023-08-06T12:40:20;6.47;;;4.18;;
44197;SDS011;30157;55.512;37.764;2023-08-06T12:42:46;5.20;;;4.03;;
44197;SDS011;30157;55.512;37.764;2023-08-06T12:45:12;5.80;;;4.40;;
44197;SDS011;30157;55.512;37.764;2023-08-06T12:47:39;5.28;;;4.07;;
44197;SDS011;30157;55.512;37.764;2023-08-06T12:50:05;9.38;;;4.65;;
44197;SDS011;30157;55.512;37.764;2023-08-06T12:52:31;6.40;;;4.25;;
44197;SDS011;30157;55.512;37.764;2023-08-06T12:54:58;4.97;;;4.30;;
44197;SDS011;30157;55.512;37.764;2023-08-06T12:57:24;7.10;;;4.40;;
44197;SDS011;30157;55.512;37.764;2023-08-06T12:59:49;6.03;;;4.28;;
44197;SDS011;30157;55.512;37.764;2023-08-06T13:02:15;5.00;;;4.50;;
44197;SDS011;30157;55.512;37.764;2023-08-06T13:04:41;5.60;;;4.43;;
44197;SDS011;30157;55.512;37.764;2023-08-06T13:07:07;5.38;;;4.57;;
44197;SDS011;30157;55.512;37.764;2023-08-06T13:09:33;6.68;;;5.00;;
44197;SDS011;30157;55.512;37.764;2023-08-06T13:11:59;7.32;;;5.32;;
44197;SDS011;30157;55.512;37.764;2023-08-06T13:14:25;7.93;;;4.93;;
44197;SDS011;30157;55.512;37.764;2023-08-06T13:16:51;4.90;;;4.38;;
44197;SDS011;30157;55.512;37.764;2023-08-06T13:19:17;8.13;;;4.60;;
44197;SDS011;30157;55.512;37.764;2023-08-06T13:24:11;6.78;;;4.78;;
44197;SDS011;30157;55.512;37.764;2023-08-06T13:26:38;7.28;;;5.00;;
44197;SDS011;30157;55.512;37.764;2023-08-06T13:29:05;9.18;;;5.22;;
44197;SDS011;30157;55.512;37.764;2023-08-06T13:31:33;6.03;;;4.70;;
44197;SDS011;30157;55.512;37.764;2023-08-06T13:33:59;7.70;;;4.35;;
44197;SDS011;30157;55.512;37.764;2023-08-06T13:36:27;7.57;;;5.30;;
44197;SDS011;30157;55.512;37.764;2023-08-06T13:38:54;6.05;;;4.53;;
44197;SDS011;30157;55.512;37.764;2023-08-06T13:41:20;8.65;;;5.43;;
44197;SDS011;30157;55.512;37.764;2023-08-06T13:43:46;7.65;;;4.80;;
44197;SDS011;30157;55.512;37.764;2023-08-06T13:46:12;7.97;;;4.85;;
44197;SDS011;30157;55.512;37.764;2023-08-06T13:48:42;7.30;;;4.32;;
44197;SDS011;30157;55.512;37.764;2023-08-06T13:51:12;5.10;;;4.63;;
44197;SDS011;30157;55.512;37.764;2023-08-06T13:53:40;6.55;;;5.10;;
44197;SDS011;30157;55.512;37.764;2023-08-06T13:56:07;5.93;;;4.75;;
44197;SDS011;30157;55.512;37.764;2023-08-06T13:58:35;5.70;;;4.25;;
44197;SDS011;30157;55.512;37.764;2023-08-06T14:01:01;7.70;;;4.57;;
44197;SDS011;30157;55.512;37.764;2023-08-06T14:03:27;6.03;;;4.63;;
44197;SDS011;30157;55.512;37.764;2023-08-06T14:05:53;5.80;;;5.05;;
44197;SDS011;30157;55.512;37.764;2023-08-06T14:08:23;5.80;;;4.60;;
44197;SDS011;30157;55.512;37.764;2023-08-06T14:10:50;6.28;;;4.60;;
44197;SDS011;30157;55.512;37.764;2023-08-06T14:13:17;8.43;;;4.70;;
44197;SDS011;30157;55.512;37.764;2023-08-06T14:15:44;8.55;;;4.68;;
44197;SDS011;30157;55.512;37.764;2023-08-06T14:18:13;5.85;;;4.47;;
44197;SDS011;30157;55.512;37.764;2023-08-06T14:20:40;6.40;;;4.63;;
44197;SDS011;30157;55.512;37.764;2023-08-06T14:23:06;8.98;;;4.75;;
44197;SDS011;30157;55.512;37.764;2023-08-06T14:25:32;6.50;;;4.25;;
44197;SDS011;30157;55.512;37.764;2023-08-06T14:27:58;5.53;;;4.60;;
44197;SDS011;30157;55.512;37.764;2023-08-06T14:30:26;5.60;;;4.45;;
44197;SDS011;30157;55.512;37.764;2023-08-06T14:32:52;5.93;;;4.25;;
44197;SDS011;30157;55.512;37.764;2023-08-06T14:35:18;5.97;;;4.78;;
44197;SDS011;30157;55.512;37.764;2023-08-06T14:37:44;6.97;;;4.30;;
44197;SDS011;30157;55.512;37.764;2023-08-06T14:40:11;5.10;;;4.18;;
44197;SDS011;30157;55.512;37.764;2023-08-06T14:42:37;7.68;;;4.60;;